Overview Statistics Trail Chart Weather Telemetry Raw packets
 

This is the latest recevied weather packets stored in our database for station/object LA4M-10. If no packets are shown the sender has not sent any weather packets the latest 10 day(s).

<< 28 29 30 31 32 33 >>
Time Temp. Humidity Pressure Rain* Wind** Luminosity Snow
1787836930 21.11° C 93% 956.5 hPa - - - -
1787836030 22.22° C 81% 956.7 hPa - - - -
1787835130 21.67° C 83% 956.7 hPa - - - -
1787834231 23.89° C 70% 956.9 hPa - - - -
1787833329 23.89° C 69% 957.1 hPa - - - -
1787832429 23.33° C 67% 957.1 hPa - - - -
1787831529 22.78° C 67% 957.1 hPa - - - -
1787830629 22.78° C 67% 957.2 hPa - - - -
1787829729 22.78° C 63% 957.4 hPa - - - -
1787828829 22.22° C 64% 957.4 hPa - - - -
1787827929 22.22° C 70% 957.5 hPa - - - -
1787827029 22.22° C 67% 957.5 hPa - - - -
1787826128 21.67° C 69% 957.6 hPa - - - -
1787825228 21.67° C 71% 957.6 hPa - - - -
1787824328 21.67° C 73% 957.7 hPa - - - -
1787823428 21.11° C 75% 957.6 hPa - - - -
1787822528 20° C 69% 957.8 hPa - - - -
1787821628 20.56° C 68% 957.9 hPa - - - -
1787820728 20.56° C 66% 958 hPa - - - -
1787819828 20.56° C 76% 958 hPa - - - -
1787818928 20° C 75% 958 hPa - - - -
1787818028 19.44° C 73% 958.1 hPa - - - -
1787817128 19.44° C 77% 958.2 hPa - - - -
1787816228 20° C 78% 958.1 hPa - - - -
1787815327 18.89° C 88% 958.1 hPa - - - -

* Rain since midnight (hover to see other rain measurements)
** Current wind speed in m/s (hover to see current wind gust speed)